Time;durP1;ratioP1;P1;durP2;ratioP2;P2;SDS_P1;SDS_P2;PMS_P1;PMS_P2;Temp;Humidity;BMP_temperature;BMP_pressure;BME280_temperature;BME280_humidity;BME280_pressure;Samples;Min_cycle;Max_cycle;Signal;HPM_P1;HPM_P2
2023/12/01 00:00:24;;;;;;;48.70;20.00;;;2.40;92.20;;;4.51;61.89;95940.25;5010984;28;20443;-55
2023/12/01 00:02:52;;;;;;;27.87;16.13;;;2.40;91.70;;;4.51;61.95;95936.81;5010791;28;20052;-53
2023/12/01 00:05:20;;;;;;;65.83;24.97;;;2.30;92.60;;;4.54;62.32;95942.56;5010924;28;20034;-53
2023/12/01 00:07:47;;;;;;;26.50;16.27;;;2.40;92.60;;;4.58;61.57;95936.97;5011129;28;20042;-52
2023/12/01 00:10:15;;;;;;;16.47;10.20;;;2.40;92.20;;;4.61;62.35;95934.81;5009736;28;20038;-51
2023/12/01 00:12:42;;;;;;;17.07;11.20;;;2.50;91.40;;;4.65;62.13;95925.63;5009935;28;20046;-57
2023/12/01 00:15:10;;;;;;;18.03;11.23;;;2.60;91.30;;;4.69;61.53;95931.34;5010671;28;20046;-55
2023/12/01 00:17:38;;;;;;;14.83;9.93;;;2.60;90.40;;;4.71;61.76;95946.03;5011061;28;20415;-54
2023/12/01 00:20:07;;;;;;;16.27;11.93;;;2.60;89.80;;;4.74;61.35;95945.69;5010749;28;20054;-55
2023/12/01 00:22:34;;;;;;;25.10;14.03;;;2.60;89.80;;;4.74;61.53;95950.94;5003645;28;20039;-56
2023/12/01 00:25:02;;;;;;;20.73;12.10;;;2.60;89.70;;;4.74;61.06;95942.22;5009700;28;20053;-56
2023/12/01 00:27:30;;;;;;;40.87;21.40;;;2.60;89.70;;;4.73;61.46;95943.25;5011360;28;20509;-55
2023/12/01 00:29:58;;;;;;;32.47;18.73;;;2.60;89.40;;;4.69;61.88;95950.66;5013186;28;20056;-56
2023/12/01 00:32:25;;;;;;;38.03;18.30;;;2.60;89.50;;;4.67;61.30;95947.34;5014461;28;20041;-57
2023/12/01 00:34:53;;;;;;;28.53;14.97;;;2.50;89.80;;;4.68;61.44;95935.00;5013138;28;20415;-55
2023/12/01 00:37:20;;;;;;;24.13;13.90;;;2.50;89.80;;;4.70;61.31;95941.72;5013352;28;20519;-55
2023/12/01 00:39:48;;;;;;;28.87;15.33;;;2.60;90.00;;;4.73;61.54;95951.16;5005001;28;20063;-52
2023/12/01 00:42:17;;;;;;;34.07;16.70;;;2.60;89.60;;;4.74;61.29;95943.03;5005671;28;20042;-54
2023/12/01 00:44:47;;;;;;;17.77;12.53;;;2.60;89.80;;;4.77;61.71;95946.34;5012902;28;20042;-56
2023/12/01 00:47:15;;;;;;;19.80;13.13;;;2.70;89.30;;;4.78;61.31;95953.28;5013614;28;20037;-56
2023/12/01 00:49:43;;;;;;;23.13;13.90;;;2.70;89.00;;;4.79;61.43;95954.91;5012488;28;20046;-57
2023/12/01 00:52:11;;;;;;;20.77;12.27;;;2.70;88.50;;;4.81;61.37;95948.50;5013065;28;20061;-56
2023/12/01 00:54:38;;;;;;;19.73;11.53;;;2.80;88.90;;;4.82;61.42;95950.13;5012574;28;20054;-56
2023/12/01 00:57:06;;;;;;;18.93;11.20;;;2.80;89.00;;;4.84;60.95;95956.06;5013100;28;20058;-55
2023/12/01 00:59:34;;;;;;;14.57;10.73;;;2.80;88.90;;;4.86;61.68;95942.72;5013078;28;20046;-55
2023/12/01 01:02:01;;;;;;;19.70;12.63;;;2.80;88.70;;;4.90;61.48;95944.00;5012762;28;20049;-56
2023/12/01 01:04:29;;;;;;;15.90;10.43;;;2.90;88.60;;;4.93;61.41;95948.97;5012726;28;20077;-56
2023/12/01 01:06:57;;;;;;;17.93;11.97;;;2.90;88.60;;;4.95;61.37;95949.63;5013060;28;20042;-56
2023/12/01 01:09:25;;;;;;;16.20;11.17;;;2.90;88.40;;;4.96;60.94;95942.53;5014028;28;20433;-57
2023/12/01 01:11:52;;;;;;;18.23;12.63;;;2.90;88.80;;;5.00;61.62;95935.91;5012759;28;20045;-55
2023/12/01 01:14:21;;;;;;;19.37;12.60;;;3.00;88.60;;;5.01;61.08;95938.41;5012595;28;20050;-56
2023/12/01 01:16:48;;;;;;;16.70;11.40;;;3.00;88.20;;;5.03;61.59;95946.16;5012673;28;20053;-56
2023/12/01 01:19:16;;;;;;;21.77;12.70;;;3.00;88.40;;;5.02;60.92;95940.06;5012468;28;20056;-55
2023/12/01 01:21:44;;;;;;;17.07;11.27;;;3.00;88.40;;;5.02;60.92;95941.84;5012857;28;20057;-54
2023/12/01 01:24:12;;;;;;;18.17;13.60;;;2.90;88.80;;;5.02;61.63;95953.25;5012270;28;20061;-57
2023/12/01 01:26:39;;;;;;;18.50;11.63;;;2.90;89.00;;;5.04;61.45;95955.69;5012176;28;20400;-57
2023/12/01 01:29:07;;;;;;;18.53;11.87;;;2.90;89.00;;;5.04;61.46;95961.81;5012547;28;20057;-56
2023/12/01 01:31:34;;;;;;;15.40;11.23;;;3.00;88.90;;;5.06;60.95;95965.09;5013645;28;20038;-55
2023/12/01 01:34:02;;;;;;;16.60;10.77;;;3.00;88.60;;;5.06;61.58;95964.25;5012042;28;20046;-55
2023/12/01 01:36:30;;;;;;;19.17;12.53;;;3.00;88.30;;;5.06;61.36;95961.63;5012024;28;20058;-56
2023/12/01 01:38:57;;;;;;;24.60;13.93;;;3.00;88.70;;;5.05;60.74;95975.81;5013343;28;20415;-55
2023/12/01 01:41:25;;;;;;;35.93;20.13;;;2.90;88.30;;;5.01;61.07;95977.16;4995116;28;20053;-56
2023/12/01 01:43:52;;;;;;;31.17;17.07;;;2.80;88.50;;;4.90;60.92;95980.94;5012212;28;20042;-56
2023/12/01 01:46:20;;;;;;;26.73;13.83;;;2.70;89.20;;;4.83;60.73;95979.97;5012147;28;20065;-56
2023/12/01 01:48:48;;;;;;;19.77;13.23;;;2.50;89.80;;;4.80;60.94;95975.84;5010351;28;20053;-55
2023/12/01 01:51:16;;;;;;;20.23;13.67;;;2.60;90.80;;;4.77;61.29;95978.81;4994866;28;20053;-56
2023/12/01 01:53:44;;;;;;;23.70;14.67;;;2.50;91.60;;;4.74;61.16;95963.31;5012042;28;20443;-56
2023/12/01 01:56:14;;;;;;;19.10;12.93;;;2.50;92.10;;;4.71;61.98;95972.41;5011649;28;20062;-54
2023/12/01 01:58:42;;;;;;;25.83;15.50;;;2.40;92.30;;;4.68;61.88;95972.72;5013077;28;20053;-54
2023/12/01 02:01:10;;;;;;;26.57;15.03;;;2.40;92.70;;;4.66;61.16;95982.59;5011607;28;20064;-55
2023/12/01 02:03:38;;;;;;;24.63;14.70;;;2.40;92.90;;;4.65;61.25;95988.88;5011926;28;20037;-54
2023/12/01 02:06:07;;;;;;;20.53;12.80;;;2.40;93.00;;;4.63;61.95;95984.75;4995121;28;20054;-55
2023/12/01 02:08:35;;;;;;;17.47;11.87;;;2.40;92.80;;;4.61;62.20;95984.09;5011735;28;20491;-56
2023/12/01 02:11:03;;;;;;;18.03;11.30;;;2.40;92.90;;;4.61;62.38;95977.00;5012758;28;20046;-54
2023/12/01 02:13:31;;;;;;;18.37;11.63;;;2.40;92.60;;;4.61;61.39;95971.72;5011430;28;20149;-54
2023/12/01 02:16:02;;;;;;;14.70;11.20;;;2.40;93.10;;;4.63;61.81;95982.91;5012239;28;20073;-51
2023/12/01 02:18:31;;;;;;;18.10;11.90;;;2.40;92.80;;;4.59;61.81;95970.25;5011602;28;20489;-55
2023/12/01 02:20:59;;;;;;;19.00;11.93;;;2.40;92.70;;;4.57;61.82;95975.66;5011368;28;20396;-54
2023/12/01 02:23:27;;;;;;;18.73;12.63;;;2.30;93.00;;;4.53;61.39;95972.53;5011109;28;20038;-55
2023/12/01 02:25:56;;;;;;;17.37;11.50;;;2.20;93.30;;;4.52;61.64;95975.34;5010884;28;20046;-55
2023/12/01 02:28:23;;;;;;;19.50;12.30;;;2.20;94.00;;;4.53;62.28;95977.81;5011350;28;20072;-55
2023/12/01 02:30:54;;;;;;;20.33;12.23;;;2.30;94.10;;;4.54;61.81;95992.66;5011055;28;20049;-55
2023/12/01 02:33:23;;;;;;;19.40;11.20;;;2.30;93.80;;;4.50;61.92;95993.16;4994996;28;20484;-57
2023/12/01 02:35:53;;;;;;;16.63;12.23;;;2.20;93.30;;;4.41;62.16;95989.66;5010864;28;20510;-51
2023/12/01 02:38:21;;;;;;;18.93;12.00;;;2.10;94.50;;;4.34;61.62;95981.59;5011045;28;20045;-55
2023/12/01 02:40:51;;;;;;;19.03;12.33;;;2.00;95.50;;;4.32;62.70;95980.94;5011210;28;20610;-54
2023/12/01 02:43:20;;;;;;;19.60;13.63;;;2.00;95.80;;;4.32;62.03;95974.84;5011758;28;20057;-53
2023/12/01 02:45:49;;;;;;;15.80;11.93;;;2.10;96.70;;;4.32;62.27;95967.78;5010486;28;20049;-54
2023/12/01 02:48:17;;;;;;;18.97;11.17;;;2.10;95.90;;;4.30;62.58;95988.19;4994806;28;20046;-55
2023/12/01 02:50:45;;;;;;;20.87;13.17;;;2.00;95.50;;;4.27;62.37;95990.31;5011946;28;20038;-55
2023/12/01 02:53:15;;;;;;;18.93;12.40;;;2.00;96.40;;;4.26;62.40;96004.47;5011955;28;20507;-53
2023/12/01 02:55:45;;;;;;;19.03;10.87;;;1.90;95.90;;;4.22;62.38;96003.16;5009494;28;20054;-53
2023/12/01 02:58:13;;;;;;;19.73;12.37;;;1.90;96.00;;;4.19;62.61;96011.34;5010504;28;20057;-54
2023/12/01 03:00:43;;;;;;;16.97;12.53;;;1.90;96.90;;;4.17;62.46;96001.00;5012052;28;20053;-54
2023/12/01 03:03:11;;;;;;;20.43;11.60;;;1.90;97.60;;;4.18;62.98;95991.28;5010444;28;20050;-52
2023/12/01 03:05:39;;;;;;;17.77;11.13;;;1.90;97.30;;;4.16;62.73;95988.00;5011568;28;20518;-55
2023/12/01 03:08:07;;;;;;;18.23;12.10;;;1.80;96.50;;;4.13;62.90;95976.78;4994532;28;20053;-55
2023/12/01 03:10:37;;;;;;;15.23;10.70;;;1.80;97.40;;;4.16;62.88;95982.72;5011890;28;20046;-55
2023/12/01 03:13:05;;;;;;;15.43;10.53;;;1.80;97.90;;;4.17;62.65;95985.19;5011720;28;20514;-53
2023/12/01 03:15:32;;;;;;;17.87;11.80;;;1.90;96.80;;;4.15;62.96;95989.81;5010327;28;20054;-52
2023/12/01 03:18:01;;;;;;;16.13;10.77;;;1.80;96.90;;;4.11;62.88;95997.19;5010378;28;20531;-51
2023/12/01 03:20:29;;;;;;;18.80;11.87;;;1.80;97.50;;;4.13;62.88;96000.50;5010122;28;20125;-54
2023/12/01 03:22:56;;;;;;;18.00;11.67;;;1.80;97.50;;;4.10;62.83;96006.06;5010052;28;20050;-55
2023/12/01 03:25:25;;;;;;;17.13;13.00;;;1.80;96.50;;;4.07;62.70;96009.06;5011567;28;20399;-51
2023/12/01 03:27:52;;;;;;;19.53;11.57;;;1.80;97.50;;;3.99;62.65;96001.09;5010378;28;20049;-55
2023/12/01 03:30:20;;;;;;;20.70;12.67;;;1.70;97.50;;;3.97;62.95;95992.53;4993818;28;20431;-53
2023/12/01 03:32:53;;;;;;;18.87;12.50;;;1.70;98.80;;;3.98;63.22;95996.84;5010397;28;20038;-53
2023/12/01 03:35:24;;;;;;;16.13;11.15;;;1.70;98.70;;;3.95;63.10;96015.56;5010366;28;20079;-52
2023/12/01 03:37:55;;;;;;;18.60;11.43;;;1.60;98.90;;;3.91;63.40;96009.81;5011606;28;20049;-55
2023/12/01 03:40:27;;;;;;;20.43;10.63;;;1.60;98.00;;;3.85;63.51;95994.66;5011216;28;20068;-55
2023/12/01 03:42:55;;;;;;;28.23;13.30;;;1.50;99.10;;;3.75;63.52;95986.06;5010544;28;20411;-54
2023/12/01 03:45:23;;;;;;;21.10;11.47;;;1.40;98.70;;;3.74;63.14;95992.28;5009736;28;20054;-56
2023/12/01 03:47:51;;;;;;;17.23;11.43;;;1.40;99.40;;;3.58;63.46;95993.06;5011399;28;20046;-54
2023/12/01 03:50:20;;;;;;;21.60;10.77;;;1.30;99.90;;;3.58;63.72;95994.88;5010999;28;20042;-55
2023/12/01 03:52:50;;;;;;;18.27;12.27;;;1.30;99.90;;;3.55;63.62;95994.22;5009645;28;20053;-53
2023/12/01 03:55:19;;;;;;;18.43;12.03;;;1.30;99.90;;;3.55;63.63;95996.84;5009988;28;20050;-55
2023/12/01 03:57:46;;;;;;;16.67;11.77;;;1.30;99.90;;;3.57;64.17;96001.09;5009668;28;20532;-52
2023/12/01 04:00:18;;;;;;;15.93;10.67;;;1.30;99.90;;;3.56;63.91;95992.41;5009987;28;20499;-53
2023/12/01 04:02:48;;;;;;;14.70;10.07;;;1.30;99.90;;;3.59;63.61;95994.72;5011227;28;20042;-55
2023/12/01 04:05:18;;;;;;;16.07;11.90;;;1.40;99.90;;;3.65;64.00;95995.91;5015965;28;20045;-52
2023/12/01 04:07:51;;;;;;;14.80;10.48;;;1.40;99.90;;;3.69;64.12;96003.31;5016814;28;20057;-55
2023/12/01 04:10:27;;;;;;;16.80;11.82;;;1.50;99.90;;;3.73;64.03;95994.13;5017423;28;20045;-54
2023/12/01 04:13:05;;;;;;;12.98;10.05;;;1.60;99.90;;;3.74;63.67;96002.81;5000567;28;20046;-55
2023/12/01 04:15:36;;;;;;;15.30;10.33;;;1.50;99.30;;;3.74;63.92;95997.56;5015978;28;20046;-55
2023/12/01 04:18:08;;;;;;;15.50;11.00;;;1.50;99.90;;;3.74;63.04;96005.47;5017374;28;20125;-54
2023/12/01 04:20:38;;;;;;;16.27;10.70;;;1.50;99.90;;;3.72;63.65;95991.63;5009750;28;20046;-54
2023/12/01 04:23:09;;;;;;;14.40;10.30;;;1.50;99.90;;;3.73;63.89;95993.28;5017310;28;20045;-56
2023/12/01 04:25:41;;;;;;;16.73;11.17;;;1.50;99.90;;;3.71;64.21;96005.78;5008138;28;20049;-54
2023/12/01 04:28:09;;;;;;;16.23;11.43;;;1.40;99.90;;;3.72;63.95;96010.06;5015680;28;20517;-55
2023/12/01 04:30:37;;;;;;;16.03;10.67;;;1.40;99.90;;;3.73;64.07;96009.09;5008043;28;20052;-57
2023/12/01 04:33:04;;;;;;;18.27;11.07;;;1.50;99.90;;;3.71;63.84;96008.44;5017413;28;20038;-55
2023/12/01 04:35:35;;;;;;;17.10;11.43;;;1.50;99.90;;;3.71;63.60;96001.34;5015094;28;20050;-55
2023/12/01 04:38:04;;;;;;;15.87;11.07;;;1.50;99.90;;;3.75;64.30;95992.16;5017405;28;20046;-55
2023/12/01 04:40:32;;;;;;;16.60;11.37;;;1.50;99.90;;;3.78;63.88;96011.25;5017060;28;20511;-55
2023/12/01 04:43:01;;;;;;;17.80;11.73;;;1.60;99.90;;;3.78;64.17;96019.97;5016916;28;20492;-55
2023/12/01 04:45:33;;;;;;;13.87;10.53;;;1.60;99.80;;;3.81;64.18;96003.03;5016942;28;20049;-56
2023/12/01 04:48:01;;;;;;;16.77;10.43;;;1.60;99.50;;;3.77;64.04;96006.97;5017369;28;20499;-56
2023/12/01 04:50:30;;;;;;;16.77;11.53;;;1.50;99.50;;;3.70;63.94;96006.75;5014030;28;20053;-53
2023/12/01 04:53:00;;;;;;;18.33;12.63;;;1.40;98.80;;;3.70;64.27;96001.50;5016204;28;20054;-55
2023/12/01 04:55:30;;;;;;;17.30;11.57;;;1.50;99.90;;;3.75;63.72;96001.84;5016764;28;20053;-53
2023/12/01 04:57:58;;;;;;;16.97;11.50;;;1.50;99.90;;;3.74;63.91;96000.19;5017168;28;20050;-52
2023/12/01 05:00:27;;;;;;;17.90;11.13;;;1.50;99.40;;;3.75;63.54;95978.16;5016962;28;20038;-56
2023/12/01 05:02:59;;;;;;;19.37;12.27;;;1.50;99.90;;;3.78;63.56;95977.03;5017058;28;20097;-54
2023/12/01 05:05:30;;;;;;;18.77;13.03;;;1.60;99.90;;;3.83;63.73;95993.16;5016380;28;20050;-57
2023/12/01 05:08:00;;;;;;;19.63;13.00;;;1.70;99.90;;;3.86;64.34;96008.66;5017088;28;20043;-57
2023/12/01 05:10:29;;;;;;;19.43;12.87;;;1.70;99.30;;;3.89;63.97;96011.78;5016927;28;20046;-56
2023/12/01 05:13:01;;;;;;;19.87;11.83;;;1.80;99.20;;;3.93;63.70;96017.53;4999367;28;20041;-57
2023/12/01 05:15:32;;;;;;;20.83;13.27;;;1.80;99.10;;;3.96;64.09;96011.97;5012872;28;20049;-55
2023/12/01 05:18:10;;;;;;;19.53;12.77;;;1.90;98.90;;;3.99;63.65;96009.00;5013982;28;20089;-57
2023/12/01 05:20:39;;;;;;;18.80;12.13;;;1.80;97.30;;;4.00;63.92;96009.84;5012511;28;20446;-54
2023/12/01 05:23:10;;;;;;;18.33;11.90;;;1.80;98.30;;;3.99;64.08;96006.38;5013758;28;20511;-56
2023/12/01 05:25:43;;;;;;;18.50;12.07;;;1.80;98.00;;;4.00;64.01;96008.03;5014039;28;20420;-56
2023/12/01 05:28:11;;;;;;;17.97;11.33;;;1.80;97.90;;;4.02;63.64;96013.16;5014201;28;20046;-54
2023/12/01 05:30:48;;;;;;;15.57;12.03;;;1.90;98.10;;;4.02;64.15;96027.13;5013400;28;20404;-56
2023/12/01 05:33:16;;;;;;;21.27;12.67;;;1.90;98.20;;;4.03;63.42;96027.94;5013422;28;20050;-56
2023/12/01 05:35:45;;;;;;;23.87;14.53;;;1.90;97.20;;;4.03;63.52;96033.22;5013231;28;20041;-55
2023/12/01 05:38:16;;;;;;;18.67;12.83;;;1.90;96.20;;;3.96;63.33;96037.50;5013478;28;20061;-56
2023/12/01 05:40:43;;;;;;;21.83;13.50;;;1.70;96.90;;;3.92;63.63;96029.91;5005512;28;20048;-53
2023/12/01 05:43:13;;;;;;;18.60;12.37;;;1.70;97.30;;;3.84;63.58;96035.13;5011965;28;20550;-56
2023/12/01 05:45:40;;;;;;;21.77;16.00;;;1.60;97.80;;;3.86;63.91;96037.63;5013104;28;20057;-55
2023/12/01 05:48:08;;;;;;;28.07;18.10;;;1.60;98.10;;;3.86;63.50;96013.94;5013298;28;20050;-57
2023/12/01 05:50:38;;;;;;;20.73;15.03;;;1.70;98.00;;;3.88;63.91;96018.03;5013083;28;20050;-55
2023/12/01 05:53:06;;;;;;;22.57;14.03;;;1.70;98.40;;;3.90;63.51;96037.13;5013044;28;20072;-58
2023/12/01 05:55:35;;;;;;;19.77;12.63;;;1.70;98.50;;;3.95;63.92;96044.53;5012137;28;20057;-55
2023/12/01 05:58:11;;;;;;;19.53;12.53;;;1.80;98.00;;;3.97;63.75;96045.22;5012079;28;20042;-56
2023/12/01 06:00:40;;;;;;;21.63;13.83;;;1.80;97.90;;;3.99;63.36;96051.13;5013001;28;20422;-56
2023/12/01 06:03:10;;;;;;;22.53;14.03;;;1.80;97.50;;;3.99;63.68;96048.50;5011997;28;20499;-56
2023/12/01 06:05:39;;;;;;;25.93;16.33;;;1.80;97.00;;;3.95;63.58;96036.63;5013022;28;20082;-55
2023/12/01 06:08:08;;;;;;;24.90;15.67;;;1.70;97.20;;;3.95;63.64;96039.28;5012648;28;20049;-53
2023/12/01 06:10:37;;;;;;;23.90;15.37;;;1.80;98.00;;;3.96;63.47;96040.13;5012885;28;20038;-56
2023/12/01 06:13:05;;;;;;;22.13;13.67;;;1.80;96.90;;;3.93;63.63;96049.97;5012860;28;20052;-56
2023/12/01 06:15:33;;;;;;;18.67;13.10;;;1.80;97.20;;;3.85;63.37;96060.47;5012588;28;20079;-55
2023/12/01 06:18:02;;;;;;;19.53;13.23;;;1.70;96.00;;;3.79;63.81;96063.72;5012645;28;20052;-57
2023/12/01 06:20:30;;;;;;;19.43;12.73;;;1.60;97.10;;;3.73;63.94;96070.44;5012536;28;20054;-54
2023/12/01 06:23:01;;;;;;;21.43;14.10;;;1.50;98.00;;;3.73;63.54;96073.09;5011565;28;20050;-55
2023/12/01 06:25:32;;;;;;;20.43;13.10;;;1.50;99.00;;;3.72;63.98;96076.72;5011934;28;20058;-56
2023/12/01 06:28:05;;;;;;;21.90;13.67;;;1.50;98.50;;;3.64;64.01;96074.00;5012550;28;20499;-57
2023/12/01 06:30:34;;;;;;;20.63;13.00;;;1.40;99.20;;;3.54;64.36;96076.75;5011836;28;20061;-56
2023/12/01 06:33:06;;;;;;;21.27;13.80;;;1.30;99.90;;;3.52;64.19;96081.34;5012462;28;20038;-54
2023/12/01 06:35:35;;;;;;;20.93;13.70;;;1.20;99.90;;;3.53;63.92;96064.59;5011966;28;20046;-56
2023/12/01 06:38:04;;;;;;;24.43;14.60;;;1.30;99.90;;;3.51;64.50;96069.19;5012092;28;20054;-55
2023/12/01 06:40:33;;;;;;;24.43;15.63;;;1.20;99.90;;;3.47;64.24;96082.78;5011965;28;20065;-57
2023/12/01 06:43:09;;;;;;;23.33;14.33;;;1.20;99.90;;;3.46;64.26;96089.88;5012494;28;20049;-56
2023/12/01 06:45:41;;;;;;;23.17;15.40;;;1.20;99.90;;;3.49;64.41;96080.84;5010203;28;20042;-56
2023/12/01 06:48:09;;;;;;;24.40;15.90;;;1.20;99.90;;;3.48;64.20;96082.66;5011941;28;20041;-55
2023/12/01 06:50:37;;;;;;;24.57;16.17;;;1.20;99.90;;;3.47;64.61;96086.28;5012017;28;20041;-56
2023/12/01 06:53:06;;;;;;;24.43;16.17;;;1.20;99.90;;;3.47;64.12;96115.22;5012061;28;20053;-56
2023/12/01 06:55:35;;;;;;;22.30;14.00;;;1.20;99.90;;;3.52;64.48;96118.19;5010923;28;20057;-56
2023/12/01 06:58:02;;;;;;;22.40;14.13;;;1.30;99.90;;;3.57;64.78;96122.16;5011802;28;20046;-54
2023/12/01 07:00:33;;;;;;;19.97;13.80;;;1.30;99.90;;;3.60;64.38;96116.59;5011927;28;20050;-56
2023/12/01 07:03:07;;;;;;;103.50;44.80;;;1.40;99.90;;;3.65;64.32;96119.59;5011009;28;20061;-56
2023/12/01 07:05:38;;;;;;;83.53;38.00;;;1.50;99.90;;;3.65;64.04;96119.59;5011879;28;20050;-56
2023/12/01 07:08:14;;;;;;;35.07;20.53;;;1.40;99.70;;;3.59;64.50;96115.78;5011846;28;20056;-55
2023/12/01 07:10:44;;;;;;;34.00;18.80;;;1.30;99.70;;;3.55;64.31;96107.38;5010724;28;20518;-56
2023/12/01 07:13:12;;;;;;;28.67;17.57;;;1.30;99.90;;;3.53;64.24;96108.50;5011525;28;20419;-57
2023/12/01 07:15:40;;;;;;;29.50;18.57;;;1.30;99.90;;;3.51;64.28;96113.94;5011375;28;20054;-57
2023/12/01 07:18:09;;;;;;;46.53;24.27;;;1.30;99.90;;;3.47;64.56;96106.47;5011771;28;20054;-56
2023/12/01 07:20:38;;;;;;;28.67;19.03;;;1.20;99.90;;;3.50;64.71;96109.63;5011520;28;20049;-55
2023/12/01 07:23:06;;;;;;;28.97;18.67;;;1.30;99.90;;;3.51;64.82;96116.56;5012243;28;20363;-57
2023/12/01 07:25:35;;;;;;;32.93;21.23;;;1.30;99.90;;;3.53;64.57;96116.41;5010269;28;20057;-56
2023/12/01 07:28:06;;;;;;;24.87;15.57;;;1.30;99.90;;;3.49;64.52;96113.25;5010559;28;20046;-56
2023/12/01 07:30:34;;;;;;;27.83;15.97;;;1.30;99.90;;;3.51;64.43;96102.59;5011662;28;20514;-55
2023/12/01 07:33:05;;;;;;;27.50;17.73;;;1.30;99.90;;;3.54;64.56;96103.06;5011846;28;20046;-56
2023/12/01 07:35:34;;;;;;;25.60;16.53;;;1.40;99.90;;;3.61;64.37;96097.22;5011022;28;20050;-56
2023/12/01 07:38:04;;;;;;;27.77;16.20;;;1.50;99.90;;;3.67;64.57;96094.78;5009326;28;20056;-56
2023/12/01 07:40:32;;;;;;;23.17;15.13;;;1.60;99.90;;;3.69;64.34;96090.16;5010007;28;20065;-56
2023/12/01 07:43:00;;;;;;;23.97;15.30;;;1.50;99.90;;;3.74;64.97;96089.69;5011041;28;20046;-56
2023/12/01 07:45:28;;;;;;;23.17;14.87;;;1.60;99.90;;;3.75;64.81;96097.44;5010812;28;20046;-55
2023/12/01 07:47:56;;;;;;;23.57;15.23;;;1.60;99.40;;;3.78;64.72;96112.13;5003174;28;20423;-57
2023/12/01 07:50:25;;;;;;;26.73;16.73;;;1.70;99.20;;;3.76;64.48;96119.31;5011008;28;20046;-56
2023/12/01 07:52:55;;;;;;;21.20;13.43;;;1.60;98.40;;;3.75;64.31;96128.22;5008062;28;20419;-57
2023/12/01 07:55:23;;;;;;;21.90;14.37;;;1.60;99.10;;;3.74;64.54;96126.53;5010764;28;20061;-57
2023/12/01 07:57:51;;;;;;;22.03;14.93;;;1.50;99.50;;;3.73;64.32;96127.53;5010987;28;20054;-57
2023/12/01 08:00:19;;;;;;;21.10;13.67;;;1.50;99.40;;;3.71;64.72;96134.78;5009892;28;20050;-58
2023/12/01 08:02:51;;;;;;;22.20;14.50;;;1.50;99.40;;;3.69;64.37;96128.84;5011020;28;20454;-58
2023/12/01 08:05:22;;;;;;;22.00;14.07;;;1.40;99.90;;;3.69;64.61;96131.47;5010771;28;20076;-57
2023/12/01 08:07:53;;;;;;;29.30;16.87;;;1.40;99.90;;;3.71;64.63;96135.59;5010789;28;20042;-58
2023/12/01 08:10:25;;;;;;;24.20;15.70;;;1.50;99.90;;;3.71;64.32;96132.13;5011067;28;20049;-59
2023/12/01 08:12:57;;;;;;;23.67;14.87;;;1.50;99.90;;;3.66;64.26;96129.94;5010932;28;20042;-58
2023/12/01 08:15:27;;;;;;;22.93;13.40;;;1.40;99.90;;;3.68;64.92;96140.31;5010696;28;20042;-59
2023/12/01 08:17:58;;;;;;;21.83;14.27;;;1.50;99.90;;;3.71;64.87;96148.75;5011240;28;20096;-58
2023/12/01 08:20:28;;;;;;;21.13;14.50;;;1.50;99.90;;;3.76;64.32;96143.00;5010817;28;20054;-59
2023/12/01 08:22:57;;;;;;;24.03;15.33;;;1.60;99.80;;;3.71;64.41;96132.97;5010404;28;20053;-60
2023/12/01 08:25:26;;;;;;;22.43;13.60;;;1.60;99.30;;;3.74;64.78;96148.44;5010393;28;20046;-55
2023/12/01 08:27:54;;;;;;;20.93;12.40;;;1.60;99.80;;;3.73;64.68;96154.69;5010826;28;20048;-57
2023/12/01 08:30:22;;;;;;;18.87;12.83;;;1.50;99.30;;;3.70;64.96;96160.28;5010012;28;20042;-59
2023/12/01 08:32:54;;;;;;;21.10;13.40;;;1.50;99.70;;;3.65;64.37;96153.81;5010758;28;20042;-59
2023/12/01 08:35:22;;;;;;;28.43;16.73;;;1.40;99.20;;;3.67;64.57;96130.78;5010351;28;20061;-59
2023/12/01 08:37:52;;;;;;;24.10;14.13;;;1.50;99.90;;;3.73;64.63;96136.25;5010512;28;20506;-59
2023/12/01 08:40:20;;;;;;;24.00;14.47;;;1.60;99.90;;;3.78;64.71;96162.13;5010487;28;20042;-59
2023/12/01 08:42:52;;;;;;;21.67;14.70;;;1.60;99.40;;;3.80;64.69;96157.53;5010597;28;20049;-58
2023/12/01 08:45:21;;;;;;;21.37;13.37;;;1.60;99.90;;;3.81;64.50;96151.28;5010446;28;20053;-59
2023/12/01 08:47:51;;;;;;;19.17;12.67;;;1.70;98.90;;;3.75;64.36;96134.28;5010710;28;20049;-58
2023/12/01 08:50:19;;;;;;;23.50;15.67;;;1.60;98.70;;;3.77;64.74;96128.06;5013148;28;20069;-57
2023/12/01 08:52:47;;;;;;;26.93;18.33;;;1.60;99.90;;;3.77;64.79;96144.66;5014250;28;20046;-58
2023/12/01 08:55:15;;;;;;;25.97;16.93;;;1.60;99.80;;;3.81;64.90;96145.19;5013759;28;20049;-59
2023/12/01 08:57:42;;;;;;;20.87;13.60;;;1.70;98.90;;;3.71;65.04;96156.66;5014020;28;20508;-57
2023/12/01 09:00:12;;;;;;;16.20;12.07;;;1.50;98.70;;;3.70;64.60;96157.63;5014165;28;20117;-58
2023/12/01 09:02:39;;;;;;;20.07;13.53;;;1.50;99.60;;;3.71;64.78;96146.13;5014131;28;20045;-58
2023/12/01 09:05:09;;;;;;;21.73;15.13;;;1.60;99.90;;;3.78;64.55;96134.97;5013844;28;20121;-59
2023/12/01 09:07:37;;;;;;;19.47;13.20;;;1.60;99.90;;;3.83;64.47;96130.88;5013946;28;20267;-56
2023/12/01 09:10:05;;;;;;;20.13;12.70;;;1.70;99.90;;;3.90;64.91;96136.38;5013852;28;20147;-58
2023/12/01 09:12:33;;;;;;;20.50;12.73;;;1.80;99.30;;;3.90;64.56;96145.09;5013920;28;20046;-59
2023/12/01 09:15:01;;;;;;;14.90;10.73;;;1.90;97.90;;;3.87;64.56;96144.56;5013555;28;20101;-58
2023/12/01 09:17:29;;;;;;;16.87;12.23;;;1.80;97.20;;;3.83;64.29;96151.94;5014028;28;20145;-58
2023/12/01 09:19:57;;;;;;;20.03;13.63;;;1.70;97.90;;;3.88;64.54;96152.31;5014015;28;20495;-58
2023/12/01 09:22:25;;;;;;;17.97;12.67;;;1.80;99.40;;;3.87;64.32;96169.06;5013841;28;20486;-58
2023/12/01 09:24:52;;;;;;;23.13;13.33;;;1.80;98.50;;;3.86;64.60;96167.44;5013143;28;20060;-58
2023/12/01 09:27:21;;;;;;;20.47;12.50;;;1.80;96.80;;;3.83;64.45;96161.66;5013274;28;20053;-58
2023/12/01 09:29:49;;;;;;;23.20;13.67;;;1.70;98.90;;;3.88;64.66;96159.41;5014012;28;20129;-58
2023/12/01 09:32:19;;;;;;;22.17;13.70;;;1.80;98.30;;;3.92;64.52;96152.84;5012168;28;20042;-58
2023/12/01 09:34:47;;;;;;;25.90;14.97;;;1.90;98.10;;;3.94;64.56;96149.06;5012962;28;20056;-58
2023/12/01 09:37:15;;;;;;;23.17;15.03;;;2.00;97.80;;;4.02;64.94;96160.63;5013623;28;20057;-58
2023/12/01 09:39:42;;;;;;;23.27;14.17;;;2.00;97.50;;;4.00;64.30;96175.75;5013261;28;20038;-58
2023/12/01 09:42:14;;;;;;;31.43;17.87;;;2.00;95.80;;;3.95;64.63;96168.28;4992945;28;20057;-58
2023/12/01 09:44:42;;;;;;;27.40;17.07;;;1.80;97.00;;;3.93;64.07;96180.78;5009933;28;20042;-59
2023/12/01 09:47:17;;;;;;;29.53;17.13;;;1.80;96.20;;;3.92;64.63;96169.44;5011761;28;20483;-58
2023/12/01 09:49:48;;;;;;;26.63;15.10;;;1.70;98.00;;;3.90;63.87;96175.84;5013244;28;20045;-58
2023/12/01 09:52:16;;;;;;;24.70;15.37;;;1.70;97.10;;;3.85;64.02;96168.41;5012190;28;20042;-58
2023/12/01 09:54:43;;;;;;;24.40;16.13;;;1.60;98.10;;;3.84;63.96;96165.91;5011676;28;20037;-58
2023/12/01 09:57:31;;;;;;;32.90;20.80;;;1.60;98.50;;;3.80;63.89;96172.47;5011160;28;20064;-58
2023/12/01 09:59:59;;;;;;;31.83;21.57;;;1.60;98.30;;;3.74;63.97;96158.13;5012434;28;20053;-58
2023/12/01 10:02:27;;;;;;;24.67;16.00;;;1.50;99.10;;;3.73;64.54;96156.50;5011323;28;20038;-59
2023/12/01 10:05:01;;;;;;;28.57;17.67;;;1.50;99.80;;;3.75;64.60;96150.09;5011293;28;20056;-58
2023/12/01 10:07:29;;;;;;;30.60;17.83;;;1.50;99.40;;;3.74;64.60;96155.50;5013050;28;20045;-58
2023/12/01 10:09:57;;;;;;;28.43;16.93;;;1.50;99.90;;;3.72;64.86;96160.94;5013231;28;20037;-58
2023/12/01 10:12:25;;;;;;;36.27;23.07;;;1.50;99.90;;;3.74;64.68;96158.97;5012742;28;20278;-58
2023/12/01 10:14:54;;;;;;;34.37;19.93;;;1.60;99.20;;;3.71;64.34;96155.81;5012667;28;20418;-58
2023/12/01 10:17:27;;;;;;;32.57;18.37;;;1.50;99.30;;;3.64;65.04;96152.16;5013136;28;20046;-58
2023/12/01 10:19:55;;;;;;;37.08;20.92;;;1.40;99.90;;;3.65;64.74;96145.91;5012704;28;20055;-58
2023/12/01 10:22:24;;;;;;;33.80;19.53;;;1.40;99.90;;;3.68;64.86;96156.13;5012763;28;20414;-58
2023/12/01 10:24:57;;;;;;;34.57;19.73;;;1.40;99.90;;;3.58;65.07;96150.97;4995125;28;20046;-58
2023/12/01 10:27:24;;;;;;;39.73;20.40;;;1.40;99.90;;;3.60;64.53;96141.09;5012578;28;20396;-59